sensor_id;sensor_type;location;lat;lon;timestamp;P1;durP1;ratioP1;P2;durP2;ratioP2
45011;SDS011;63444;48.148;11.542;2024-01-16T00:00:16;3.77;;;2.80;;
45011;SDS011;63444;48.148;11.542;2024-01-16T00:02:42;4.20;;;2.50;;
45011;SDS011;63444;48.148;11.542;2024-01-16T00:05:08;3.47;;;2.60;;
45011;SDS011;63444;48.148;11.542;2024-01-16T00:07:35;3.23;;;2.50;;
45011;SDS011;63444;48.148;11.542;2024-01-16T00:10:04;2.97;;;2.67;;
45011;SDS011;63444;48.148;11.542;2024-01-16T00:12:32;3.00;;;2.57;;
45011;SDS011;63444;48.148;11.542;2024-01-16T00:14:57;2.87;;;2.63;;
45011;SDS011;63444;48.148;11.542;2024-01-16T00:17:23;2.70;;;2.50;;
45011;SDS011;63444;48.148;11.542;2024-01-16T00:19:48;3.20;;;2.70;;
45011;SDS011;63444;48.148;11.542;2024-01-16T00:22:14;3.30;;;2.50;;
45011;SDS011;63444;48.148;11.542;2024-01-16T00:24:40;3.83;;;2.83;;
45011;SDS011;63444;48.148;11.542;2024-01-16T00:27:06;2.80;;;2.60;;
45011;SDS011;63444;48.148;11.542;2024-01-16T00:29:31;3.67;;;2.70;;
45011;SDS011;63444;48.148;11.542;2024-01-16T00:31:57;3.23;;;2.90;;
45011;SDS011;63444;48.148;11.542;2024-01-16T00:34:22;2.73;;;2.50;;
45011;SDS011;63444;48.148;11.542;2024-01-16T00:36:48;4.03;;;2.87;;
45011;SDS011;63444;48.148;11.542;2024-01-16T00:39:14;3.10;;;2.80;;
45011;SDS011;63444;48.148;11.542;2024-01-16T00:41:39;3.30;;;2.60;;
45011;SDS011;63444;48.148;11.542;2024-01-16T00:44:05;3.87;;;2.43;;
45011;SDS011;63444;48.148;11.542;2024-01-16T00:46:31;3.37;;;2.37;;
45011;SDS011;63444;48.148;11.542;2024-01-16T00:48:56;2.90;;;2.47;;
45011;SDS011;63444;48.148;11.542;2024-01-16T00:51:22;3.47;;;2.50;;
45011;SDS011;63444;48.148;11.542;2024-01-16T00:53:47;3.73;;;2.70;;
45011;SDS011;63444;48.148;11.542;2024-01-16T00:56:13;3.00;;;2.60;;
45011;SDS011;63444;48.148;11.542;2024-01-16T00:58:39;2.87;;;2.37;;
45011;SDS011;63444;48.148;11.542;2024-01-16T01:01:04;2.47;;;2.00;;
45011;SDS011;63444;48.148;11.542;2024-01-16T01:03:30;2.93;;;2.60;;
45011;SDS011;63444;48.148;11.542;2024-01-16T01:05:55;2.80;;;2.23;;
45011;SDS011;63444;48.148;11.542;2024-01-16T01:08:22;3.20;;;2.73;;
45011;SDS011;63444;48.148;11.542;2024-01-16T01:10:47;2.77;;;2.30;;
45011;SDS011;63444;48.148;11.542;2024-01-16T01:13:13;2.83;;;2.47;;
45011;SDS011;63444;48.148;11.542;2024-01-16T01:15:39;2.23;;;2.03;;
45011;SDS011;63444;48.148;11.542;2024-01-16T01:18:04;2.90;;;2.47;;
45011;SDS011;63444;48.148;11.542;2024-01-16T01:20:31;2.80;;;2.30;;
45011;SDS011;63444;48.148;11.542;2024-01-16T01:22:57;2.50;;;2.20;;
45011;SDS011;63444;48.148;11.542;2024-01-16T01:25:23;2.30;;;2.10;;
45011;SDS011;63444;48.148;11.542;2024-01-16T01:27:51;3.03;;;2.33;;
45011;SDS011;63444;48.148;11.542;2024-01-16T01:30:17;3.90;;;2.20;;
45011;SDS011;63444;48.148;11.542;2024-01-16T01:32:43;4.03;;;2.67;;
45011;SDS011;63444;48.148;11.542;2024-01-16T01:35:09;3.23;;;2.53;;
45011;SDS011;63444;48.148;11.542;2024-01-16T01:37:36;3.40;;;2.33;;
45011;SDS011;63444;48.148;11.542;2024-01-16T01:40:02;2.60;;;2.40;;
45011;SDS011;63444;48.148;11.542;2024-01-16T01:42:28;3.87;;;2.50;;
45011;SDS011;63444;48.148;11.542;2024-01-16T01:44:53;3.33;;;2.60;;
45011;SDS011;63444;48.148;11.542;2024-01-16T01:47:19;2.77;;;2.47;;
45011;SDS011;63444;48.148;11.542;2024-01-16T01:49:45;2.97;;;2.50;;
45011;SDS011;63444;48.148;11.542;2024-01-16T01:52:11;2.90;;;2.70;;
45011;SDS011;63444;48.148;11.542;2024-01-16T01:54:37;3.37;;;2.50;;
45011;SDS011;63444;48.148;11.542;2024-01-16T01:57:03;3.17;;;2.30;;
45011;SDS011;63444;48.148;11.542;2024-01-16T01:59:29;5.80;;;3.83;;
45011;SDS011;63444;48.148;11.542;2024-01-16T02:01:56;2.83;;;2.53;;
45011;SDS011;63444;48.148;11.542;2024-01-16T02:04:22;2.90;;;2.37;;
45011;SDS011;63444;48.148;11.542;2024-01-16T02:06:50;3.20;;;2.30;;
45011;SDS011;63444;48.148;11.542;2024-01-16T02:09:15;3.27;;;2.20;;
45011;SDS011;63444;48.148;11.542;2024-01-16T02:11:41;4.77;;;2.27;;
45011;SDS011;63444;48.148;11.542;2024-01-16T02:14:08;2.60;;;2.23;;
45011;SDS011;63444;48.148;11.542;2024-01-16T02:16:38;2.53;;;2.30;;
45011;SDS011;63444;48.148;11.542;2024-01-16T02:19:06;2.77;;;2.23;;
45011;SDS011;63444;48.148;11.542;2024-01-16T02:21:39;3.17;;;2.37;;
45011;SDS011;63444;48.148;11.542;2024-01-16T02:24:07;3.57;;;2.30;;
45011;SDS011;63444;48.148;11.542;2024-01-16T02:26:34;3.30;;;2.30;;
45011;SDS011;63444;48.148;11.542;2024-01-16T02:29:01;3.20;;;2.67;;
45011;SDS011;63444;48.148;11.542;2024-01-16T02:31:27;3.73;;;2.80;;
45011;SDS011;63444;48.148;11.542;2024-01-16T02:33:53;3.37;;;2.30;;
45011;SDS011;63444;48.148;11.542;2024-01-16T02:36:18;2.50;;;2.30;;
45011;SDS011;63444;48.148;11.542;2024-01-16T02:38:44;2.20;;;2.00;;
45011;SDS011;63444;48.148;11.542;2024-01-16T02:41:12;2.50;;;2.30;;
45011;SDS011;63444;48.148;11.542;2024-01-16T02:43:38;4.93;;;2.57;;
45011;SDS011;63444;48.148;11.542;2024-01-16T02:46:04;2.60;;;2.27;;
45011;SDS011;63444;48.148;11.542;2024-01-16T02:48:30;3.83;;;2.60;;
45011;SDS011;63444;48.148;11.542;2024-01-16T02:50:55;3.07;;;2.43;;
45011;SDS011;63444;48.148;11.542;2024-01-16T02:53:21;3.43;;;2.30;;
45011;SDS011;63444;48.148;11.542;2024-01-16T02:55:47;2.70;;;2.13;;
45011;SDS011;63444;48.148;11.542;2024-01-16T02:58:12;2.13;;;1.93;;
45011;SDS011;63444;48.148;11.542;2024-01-16T03:00:38;3.77;;;2.30;;
45011;SDS011;63444;48.148;11.542;2024-01-16T03:03:03;2.87;;;2.10;;
45011;SDS011;63444;48.148;11.542;2024-01-16T03:05:29;2.70;;;2.50;;
45011;SDS011;63444;48.148;11.542;2024-01-16T03:07:55;2.60;;;2.10;;
45011;SDS011;63444;48.148;11.542;2024-01-16T03:10:21;3.13;;;2.13;;
45011;SDS011;63444;48.148;11.542;2024-01-16T03:12:46;2.77;;;2.47;;
45011;SDS011;63444;48.148;11.542;2024-01-16T03:15:12;3.53;;;2.17;;
45011;SDS011;63444;48.148;11.542;2024-01-16T03:17:37;2.70;;;2.23;;
45011;SDS011;63444;48.148;11.542;2024-01-16T03:20:03;3.97;;;2.20;;
45011;SDS011;63444;48.148;11.542;2024-01-16T03:22:30;3.93;;;2.40;;
45011;SDS011;63444;48.148;11.542;2024-01-16T03:24:56;2.57;;;2.37;;
45011;SDS011;63444;48.148;11.542;2024-01-16T03:27:22;2.80;;;2.57;;
45011;SDS011;63444;48.148;11.542;2024-01-16T03:29:47;2.57;;;2.30;;
45011;SDS011;63444;48.148;11.542;2024-01-16T03:32:13;3.13;;;2.53;;
45011;SDS011;63444;48.148;11.542;2024-01-16T03:34:39;4.13;;;2.33;;
45011;SDS011;63444;48.148;11.542;2024-01-16T03:37:05;3.03;;;2.40;;
45011;SDS011;63444;48.148;11.542;2024-01-16T03:39:30;3.97;;;2.47;;
45011;SDS011;63444;48.148;11.542;2024-01-16T03:41:56;3.43;;;2.17;;
45011;SDS011;63444;48.148;11.542;2024-01-16T03:44:22;2.80;;;2.17;;
45011;SDS011;63444;48.148;11.542;2024-01-16T03:46:47;2.50;;;2.30;;
45011;SDS011;63444;48.148;11.542;2024-01-16T03:49:13;4.33;;;2.23;;
45011;SDS011;63444;48.148;11.542;2024-01-16T03:51:39;3.37;;;2.40;;
45011;SDS011;63444;48.148;11.542;2024-01-16T03:54:07;2.40;;;2.20;;
45011;SDS011;63444;48.148;11.542;2024-01-16T03:56:33;3.43;;;2.80;;
45011;SDS011;63444;48.148;11.542;2024-01-16T03:58:58;2.57;;;2.37;;
45011;SDS011;63444;48.148;11.542;2024-01-16T04:01:33;2.87;;;2.60;;
45011;SDS011;63444;48.148;11.542;2024-01-16T04:04:02;3.60;;;2.80;;
45011;SDS011;63444;48.148;11.542;2024-01-16T04:06:27;3.90;;;2.70;;
45011;SDS011;63444;48.148;11.542;2024-01-16T04:08:54;3.63;;;2.57;;
45011;SDS011;63444;48.148;11.542;2024-01-16T04:11:20;3.23;;;2.70;;
45011;SDS011;63444;48.148;11.542;2024-01-16T04:13:46;3.37;;;2.47;;
45011;SDS011;63444;48.148;11.542;2024-01-16T04:16:12;2.80;;;2.23;;
45011;SDS011;63444;48.148;11.542;2024-01-16T04:18:38;2.93;;;2.53;;
45011;SDS011;63444;48.148;11.542;2024-01-16T04:21:05;3.60;;;2.90;;
45011;SDS011;63444;48.148;11.542;2024-01-16T04:23:31;5.47;;;2.60;;
45011;SDS011;63444;48.148;11.542;2024-01-16T04:25:57;3.73;;;2.50;;
45011;SDS011;63444;48.148;11.542;2024-01-16T04:28:23;4.73;;;2.70;;
45011;SDS011;63444;48.148;11.542;2024-01-16T04:30:49;4.40;;;2.73;;
45011;SDS011;63444;48.148;11.542;2024-01-16T04:33:15;4.03;;;3.10;;
45011;SDS011;63444;48.148;11.542;2024-01-16T04:35:40;3.63;;;2.50;;
45011;SDS011;63444;48.148;11.542;2024-01-16T04:38:06;3.70;;;2.60;;
45011;SDS011;63444;48.148;11.542;2024-01-16T04:40:32;4.43;;;3.07;;
45011;SDS011;63444;48.148;11.542;2024-01-16T04:42:58;3.90;;;2.63;;
45011;SDS011;63444;48.148;11.542;2024-01-16T04:45:24;3.60;;;2.60;;
45011;SDS011;63444;48.148;11.542;2024-01-16T04:47:50;6.33;;;2.90;;
45011;SDS011;63444;48.148;11.542;2024-01-16T04:50:15;4.13;;;2.73;;
45011;SDS011;63444;48.148;11.542;2024-01-16T04:52:41;3.47;;;2.50;;
45011;SDS011;63444;48.148;11.542;2024-01-16T04:55:06;4.40;;;2.67;;
45011;SDS011;63444;48.148;11.542;2024-01-16T04:57:32;3.17;;;2.40;;
45011;SDS011;63444;48.148;11.542;2024-01-16T04:59:58;3.03;;;2.73;;
45011;SDS011;63444;48.148;11.542;2024-01-16T05:02:24;4.63;;;2.83;;
45011;SDS011;63444;48.148;11.542;2024-01-16T05:04:50;3.77;;;2.57;;
45011;SDS011;63444;48.148;11.542;2024-01-16T05:07:20;3.83;;;3.00;;
45011;SDS011;63444;48.148;11.542;2024-01-16T05:09:48;3.70;;;2.90;;
45011;SDS011;63444;48.148;11.542;2024-01-16T05:12:14;3.50;;;2.60;;
45011;SDS011;63444;48.148;11.542;2024-01-16T05:14:40;4.13;;;2.70;;
45011;SDS011;63444;48.148;11.542;2024-01-16T05:17:05;4.73;;;2.77;;
45011;SDS011;63444;48.148;11.542;2024-01-16T05:19:31;3.87;;;2.87;;
45011;SDS011;63444;48.148;11.542;2024-01-16T05:21:57;2.63;;;2.40;;
45011;SDS011;63444;48.148;11.542;2024-01-16T05:24:22;3.57;;;2.90;;
45011;SDS011;63444;48.148;11.542;2024-01-16T05:26:48;4.20;;;2.90;;
45011;SDS011;63444;48.148;11.542;2024-01-16T05:29:14;3.13;;;2.53;;
45011;SDS011;63444;48.148;11.542;2024-01-16T05:31:42;3.70;;;2.83;;
45011;SDS011;63444;48.148;11.542;2024-01-16T05:34:08;3.73;;;2.63;;
45011;SDS011;63444;48.148;11.542;2024-01-16T05:36:35;3.43;;;2.50;;
45011;SDS011;63444;48.148;11.542;2024-01-16T05:39:00;4.20;;;2.70;;
45011;SDS011;63444;48.148;11.542;2024-01-16T05:41:27;3.30;;;2.80;;
45011;SDS011;63444;48.148;11.542;2024-01-16T05:43:52;3.63;;;2.97;;
45011;SDS011;63444;48.148;11.542;2024-01-16T05:46:18;3.53;;;2.60;;
45011;SDS011;63444;48.148;11.542;2024-01-16T05:48:44;4.00;;;2.93;;
45011;SDS011;63444;48.148;11.542;2024-01-16T05:51:09;3.30;;;2.90;;
45011;SDS011;63444;48.148;11.542;2024-01-16T05:53:35;4.30;;;2.70;;
45011;SDS011;63444;48.148;11.542;2024-01-16T05:56:01;3.10;;;2.80;;
45011;SDS011;63444;48.148;11.542;2024-01-16T05:58:26;3.30;;;2.60;;
45011;SDS011;63444;48.148;11.542;2024-01-16T06:00:52;3.40;;;2.63;;
45011;SDS011;63444;48.148;11.542;2024-01-16T06:03:17;3.80;;;2.77;;
45011;SDS011;63444;48.148;11.542;2024-01-16T06:05:43;5.97;;;2.73;;
45011;SDS011;63444;48.148;11.542;2024-01-16T06:08:09;3.40;;;2.50;;
45011;SDS011;63444;48.148;11.542;2024-01-16T06:10:34;3.50;;;2.50;;
45011;SDS011;63444;48.148;11.542;2024-01-16T06:13:00;4.10;;;2.67;;
45011;SDS011;63444;48.148;11.542;2024-01-16T06:15:26;4.73;;;2.97;;
45011;SDS011;63444;48.148;11.542;2024-01-16T06:17:51;3.40;;;2.53;;
45011;SDS011;63444;48.148;11.542;2024-01-16T06:20:17;5.23;;;3.20;;
45011;SDS011;63444;48.148;11.542;2024-01-16T06:22:43;3.27;;;2.70;;
45011;SDS011;63444;48.148;11.542;2024-01-16T06:25:08;3.13;;;2.50;;
45011;SDS011;63444;48.148;11.542;2024-01-16T06:27:34;5.53;;;2.70;;
45011;SDS011;63444;48.148;11.542;2024-01-16T06:29:59;3.70;;;2.77;;
45011;SDS011;63444;48.148;11.542;2024-01-16T06:32:25;3.43;;;2.57;;
45011;SDS011;63444;48.148;11.542;2024-01-16T06:34:50;2.90;;;2.60;;
45011;SDS011;63444;48.148;11.542;2024-01-16T06:37:16;2.87;;;2.50;;
45011;SDS011;63444;48.148;11.542;2024-01-16T06:39:42;2.67;;;2.47;;
45011;SDS011;63444;48.148;11.542;2024-01-16T06:42:07;5.30;;;3.10;;
45011;SDS011;63444;48.148;11.542;2024-01-16T06:44:34;2.80;;;2.50;;
45011;SDS011;63444;48.148;11.542;2024-01-16T06:46:59;4.03;;;2.80;;
45011;SDS011;63444;48.148;11.542;2024-01-16T06:49:25;2.70;;;2.50;;
45011;SDS011;63444;48.148;11.542;2024-01-16T06:51:52;3.63;;;2.57;;
45011;SDS011;63444;48.148;11.542;2024-01-16T06:54:17;3.17;;;2.47;;
45011;SDS011;63444;48.148;11.542;2024-01-16T06:56:45;3.60;;;2.80;;
45011;SDS011;63444;48.148;11.542;2024-01-16T06:59:11;3.83;;;2.50;;
45011;SDS011;63444;48.148;11.542;2024-01-16T07:01:37;3.63;;;2.60;;
45011;SDS011;63444;48.148;11.542;2024-01-16T07:04:03;4.30;;;2.77;;
45011;SDS011;63444;48.148;11.542;2024-01-16T07:06:28;4.17;;;2.30;;
45011;SDS011;63444;48.148;11.542;2024-01-16T07:08:54;3.03;;;2.30;;
45011;SDS011;63444;48.148;11.542;2024-01-16T07:11:19;3.87;;;2.73;;
45011;SDS011;63444;48.148;11.542;2024-01-16T07:13:46;3.10;;;2.37;;
45011;SDS011;63444;48.148;11.542;2024-01-16T07:16:11;5.23;;;2.63;;
45011;SDS011;63444;48.148;11.542;2024-01-16T07:18:38;2.67;;;2.30;;
45011;SDS011;63444;48.148;11.542;2024-01-16T07:21:05;3.47;;;2.43;;
45011;SDS011;63444;48.148;11.542;2024-01-16T07:23:44;2.73;;;2.20;;
45011;SDS011;63444;48.148;11.542;2024-01-16T07:26:10;2.83;;;2.50;;
45011;SDS011;63444;48.148;11.542;2024-01-16T07:28:35;9.87;;;3.17;;
45011;SDS011;63444;48.148;11.542;2024-01-16T07:31:01;2.97;;;2.33;;
45011;SDS011;63444;48.148;11.542;2024-01-16T07:33:26;3.80;;;2.60;;
45011;SDS011;63444;48.148;11.542;2024-01-16T07:35:52;3.87;;;2.53;;
45011;SDS011;63444;48.148;11.542;2024-01-16T07:38:18;3.83;;;2.53;;
45011;SDS011;63444;48.148;11.542;2024-01-16T07:40:44;3.40;;;2.50;;
45011;SDS011;63444;48.148;11.542;2024-01-16T07:43:09;2.87;;;2.57;;
45011;SDS011;63444;48.148;11.542;2024-01-16T07:45:35;3.43;;;2.43;;
45011;SDS011;63444;48.148;11.542;2024-01-16T07:48:00;3.60;;;2.20;;
45011;SDS011;63444;48.148;11.542;2024-01-16T07:50:26;2.90;;;2.30;;
45011;SDS011;63444;48.148;11.542;2024-01-16T07:52:52;2.93;;;2.53;;
45011;SDS011;63444;48.148;11.542;2024-01-16T07:55:17;3.83;;;3.00;;
45011;SDS011;63444;48.148;11.542;2024-01-16T07:57:43;5.50;;;2.80;;
45011;SDS011;63444;48.148;11.542;2024-01-16T08:00:09;4.13;;;2.87;;
45011;SDS011;63444;48.148;11.542;2024-01-16T08:02:38;5.60;;;2.87;;
45011;SDS011;63444;48.148;11.542;2024-01-16T08:05:04;3.00;;;2.70;;
45011;SDS011;63444;48.148;11.542;2024-01-16T08:07:30;5.17;;;3.07;;
45011;SDS011;63444;48.148;11.542;2024-01-16T08:09:56;3.57;;;3.00;;
45011;SDS011;63444;48.148;11.542;2024-01-16T08:12:22;4.17;;;3.13;;
45011;SDS011;63444;48.148;11.542;2024-01-16T08:14:48;5.37;;;3.30;;
45011;SDS011;63444;48.148;11.542;2024-01-16T08:17:13;4.97;;;3.53;;
45011;SDS011;63444;48.148;11.542;2024-01-16T08:19:39;4.50;;;3.30;;
45011;SDS011;63444;48.148;11.542;2024-01-16T08:22:05;5.37;;;3.37;;
45011;SDS011;63444;48.148;11.542;2024-01-16T08:24:31;4.50;;;3.43;;
45011;SDS011;63444;48.148;11.542;2024-01-16T08:26:57;4.93;;;3.37;;
45011;SDS011;63444;48.148;11.542;2024-01-16T08:29:23;5.40;;;3.67;;
45011;SDS011;63444;48.148;11.542;2024-01-16T08:31:49;5.13;;;3.50;;
45011;SDS011;63444;48.148;11.542;2024-01-16T08:34:18;3.67;;;3.20;;
45011;SDS011;63444;48.148;11.542;2024-01-16T08:36:44;6.13;;;3.57;;
45011;SDS011;63444;48.148;11.542;2024-01-16T08:39:09;4.73;;;3.20;;
45011;SDS011;63444;48.148;11.542;2024-01-16T08:41:36;4.77;;;3.70;;
45011;SDS011;63444;48.148;11.542;2024-01-16T08:44:02;3.80;;;3.37;;
45011;SDS011;63444;48.148;11.542;2024-01-16T08:46:29;5.50;;;3.37;;
45011;SDS011;63444;48.148;11.542;2024-01-16T08:48:54;5.40;;;4.00;;
45011;SDS011;63444;48.148;11.542;2024-01-16T08:51:20;6.53;;;3.37;;
45011;SDS011;63444;48.148;11.542;2024-01-16T08:53:46;5.30;;;3.57;;
45011;SDS011;63444;48.148;11.542;2024-01-16T08:56:11;5.90;;;3.40;;
45011;SDS011;63444;48.148;11.542;2024-01-16T08:58:37;4.53;;;3.23;;
45011;SDS011;63444;48.148;11.542;2024-01-16T09:01:05;5.00;;;3.30;;
45011;SDS011;63444;48.148;11.542;2024-01-16T09:03:34;3.90;;;3.13;;
45011;SDS011;63444;48.148;11.542;2024-01-16T09:06:00;5.40;;;3.50;;
45011;SDS011;63444;48.148;11.542;2024-01-16T09:08:26;5.20;;;3.47;;
45011;SDS011;63444;48.148;11.542;2024-01-16T09:10:53;6.50;;;3.70;;
45011;SDS011;63444;48.148;11.542;2024-01-16T09:13:21;6.03;;;3.93;;
45011;SDS011;63444;48.148;11.542;2024-01-16T09:15:49;4.30;;;3.20;;
45011;SDS011;63444;48.148;11.542;2024-01-16T09:18:15;4.40;;;3.40;;
45011;SDS011;63444;48.148;11.542;2024-01-16T09:20:42;4.70;;;3.43;;
45011;SDS011;63444;48.148;11.542;2024-01-16T09:23:08;5.97;;;3.57;;
45011;SDS011;63444;48.148;11.542;2024-01-16T09:25:34;4.73;;;3.33;;
45011;SDS011;63444;48.148;11.542;2024-01-16T09:28:00;5.00;;;3.30;;
45011;SDS011;63444;48.148;11.542;2024-01-16T09:30:26;4.67;;;3.37;;
45011;SDS011;63444;48.148;11.542;2024-01-16T09:32:52;5.83;;;3.00;;
45011;SDS011;63444;48.148;11.542;2024-01-16T09:35:18;5.40;;;3.77;;
45011;SDS011;63444;48.148;11.542;2024-01-16T09:37:43;5.30;;;3.50;;
45011;SDS011;63444;48.148;11.542;2024-01-16T09:40:10;5.57;;;3.37;;
45011;SDS011;63444;48.148;11.542;2024-01-16T09:42:38;3.60;;;2.97;;
45011;SDS011;63444;48.148;11.542;2024-01-16T09:45:05;4.07;;;3.20;;
45011;SDS011;63444;48.148;11.542;2024-01-16T09:47:34;6.73;;;3.70;;
45011;SDS011;63444;48.148;11.542;2024-01-16T09:49:59;4.10;;;2.97;;
45011;SDS011;63444;48.148;11.542;2024-01-16T09:52:27;4.57;;;3.30;;
45011;SDS011;63444;48.148;11.542;2024-01-16T09:54:54;5.07;;;3.27;;
45011;SDS011;63444;48.148;11.542;2024-01-16T09:57:19;6.10;;;3.23;;
45011;SDS011;63444;48.148;11.542;2024-01-16T09:59:50;5.00;;;3.50;;
45011;SDS011;63444;48.148;11.542;2024-01-16T10:02:16;4.97;;;3.50;;
45011;SDS011;63444;48.148;11.542;2024-01-16T10:04:44;6.30;;;3.80;;
45011;SDS011;63444;48.148;11.542;2024-01-16T10:07:09;4.90;;;3.53;;
45011;SDS011;63444;48.148;11.542;2024-01-16T10:09:38;7.50;;;3.47;;
45011;SDS011;63444;48.148;11.542;2024-01-16T10:12:04;5.70;;;3.30;;
45011;SDS011;63444;48.148;11.542;2024-01-16T10:14:35;5.83;;;3.33;;
45011;SDS011;63444;48.148;11.542;2024-01-16T10:17:03;4.77;;;3.77;;
45011;SDS011;63444;48.148;11.542;2024-01-16T10:19:49;4.17;;;3.37;;
45011;SDS011;63444;48.148;11.542;2024-01-16T10:22:21;4.13;;;2.97;;
45011;SDS011;63444;48.148;11.542;2024-01-16T10:24:49;4.77;;;3.53;;
45011;SDS011;63444;48.148;11.542;2024-01-16T10:27:16;6.00;;;3.10;;
45011;SDS011;63444;48.148;11.542;2024-01-16T10:29:55;5.53;;;3.57;;
45011;SDS011;63444;48.148;11.542;2024-01-16T10:32:29;3.93;;;3.33;;
45011;SDS011;63444;48.148;11.542;2024-01-16T10:35:09;4.07;;;3.17;;
45011;SDS011;63444;48.148;11.542;2024-01-16T10:37:47;6.90;;;3.70;;
45011;SDS011;63444;48.148;11.542;2024-01-16T10:40:22;3.60;;;3.07;;
45011;SDS011;63444;48.148;11.542;2024-01-16T10:42:58;5.53;;;3.40;;
45011;SDS011;63444;48.148;11.542;2024-01-16T10:45:31;4.77;;;3.07;;
45011;SDS011;63444;48.148;11.542;2024-01-16T10:50:28;3.90;;;3.20;;
45011;SDS011;63444;48.148;11.542;2024-01-16T10:52:54;4.80;;;3.30;;
45011;SDS011;63444;48.148;11.542;2024-01-16T10:55:22;4.50;;;3.00;;
45011;SDS011;63444;48.148;11.542;2024-01-16T10:57:48;3.90;;;3.10;;
45011;SDS011;63444;48.148;11.542;2024-01-16T11:00:18;3.93;;;3.20;;
45011;SDS011;63444;48.148;11.542;2024-01-16T11:02:57;4.50;;;3.20;;
45011;SDS011;63444;48.148;11.542;2024-01-16T11:05:26;6.00;;;3.53;;
45011;SDS011;63444;48.148;11.542;2024-01-16T11:07:55;4.67;;;2.73;;
45011;SDS011;63444;48.148;11.542;2024-01-16T11:10:22;3.80;;;2.67;;
45011;SDS011;63444;48.148;11.542;2024-01-16T11:12:49;4.93;;;3.33;;
45011;SDS011;63444;48.148;11.542;2024-01-16T11:15:17;5.27;;;2.80;;
45011;SDS011;63444;48.148;11.542;2024-01-16T11:17:44;4.00;;;2.90;;
45011;SDS011;63444;48.148;11.542;2024-01-16T11:20:11;6.10;;;3.20;;
45011;SDS011;63444;48.148;11.542;2024-01-16T11:22:39;5.07;;;3.30;;
45011;SDS011;63444;48.148;11.542;2024-01-16T11:25:07;5.13;;;3.60;;
45011;SDS011;63444;48.148;11.542;2024-01-16T11:27:38;6.53;;;2.97;;
45011;SDS011;63444;48.148;11.542;2024-01-16T11:30:07;3.40;;;2.60;;
45011;SDS011;63444;48.148;11.542;2024-01-16T11:32:37;2.90;;;2.30;;
45011;SDS011;63444;48.148;11.542;2024-01-16T11:35:09;2.87;;;2.30;;
45011;SDS011;63444;48.148;11.542;2024-01-16T11:37:36;2.93;;;2.50;;
45011;SDS011;63444;48.148;11.542;2024-01-16T11:42:43;2.73;;;1.90;;
45011;SDS011;63444;48.148;11.542;2024-01-16T11:48:17;3.40;;;2.10;;
45011;SDS011;63444;48.148;11.542;2024-01-16T11:50:42;2.50;;;1.77;;
45011;SDS011;63444;48.148;11.542;2024-01-16T11:53:08;3.73;;;2.00;;
45011;SDS011;63444;48.148;11.542;2024-01-16T12:01:11;2.40;;;2.17;;
45011;SDS011;63444;48.148;11.542;2024-01-16T12:03:37;2.50;;;2.27;;
45011;SDS011;63444;48.148;11.542;2024-01-16T12:06:03;2.20;;;2.00;;
45011;SDS011;63444;48.148;11.542;2024-01-16T12:08:31;4.33;;;2.33;;
45011;SDS011;63444;48.148;11.542;2024-01-16T12:10:57;2.70;;;2.37;;
45011;SDS011;63444;48.148;11.542;2024-01-16T12:13:24;3.97;;;2.37;;
45011;SDS011;63444;48.148;11.542;2024-01-16T12:15:59;4.07;;;2.63;;
45011;SDS011;63444;48.148;11.542;2024-01-16T12:18:31;2.80;;;2.20;;
45011;SDS011;63444;48.148;11.542;2024-01-16T12:20:57;4.17;;;2.70;;
45011;SDS011;63444;48.148;11.542;2024-01-16T12:23:23;3.47;;;2.37;;
45011;SDS011;63444;48.148;11.542;2024-01-16T12:25:51;2.50;;;2.03;;
45011;SDS011;63444;48.148;11.542;2024-01-16T12:28:23;3.70;;;1.90;;
45011;SDS011;63444;48.148;11.542;2024-01-16T12:30:49;2.80;;;2.40;;
45011;SDS011;63444;48.148;11.542;2024-01-16T12:33:21;4.23;;;2.40;;
45011;SDS011;63444;48.148;11.542;2024-01-16T12:35:47;4.63;;;2.57;;
45011;SDS011;63444;48.148;11.542;2024-01-16T12:38:14;3.47;;;2.23;;
45011;SDS011;63444;48.148;11.542;2024-01-16T12:40:50;4.10;;;2.60;;
45011;SDS011;63444;48.148;11.542;2024-01-16T12:43:17;3.70;;;2.43;;
45011;SDS011;63444;48.148;11.542;2024-01-16T12:45:43;2.90;;;2.50;;
45011;SDS011;63444;48.148;11.542;2024-01-16T12:48:10;2.93;;;2.23;;
45011;SDS011;63444;48.148;11.542;2024-01-16T12:50:36;2.33;;;2.03;;
45011;SDS011;63444;48.148;11.542;2024-01-16T12:55:29;2.73;;;2.20;;
45011;SDS011;63444;48.148;11.542;2024-01-16T13:00:41;3.67;;;2.23;;
45011;SDS011;63444;48.148;11.542;2024-01-16T13:03:14;4.93;;;2.60;;
45011;SDS011;63444;48.148;11.542;2024-01-16T13:05:44;2.93;;;2.30;;
45011;SDS011;63444;48.148;11.542;2024-01-16T13:08:16;4.20;;;2.43;;
45011;SDS011;63444;48.148;11.542;2024-01-16T13:10:43;3.10;;;2.30;;
45011;SDS011;63444;48.148;11.542;2024-01-16T13:13:12;2.23;;;1.80;;
45011;SDS011;63444;48.148;11.542;2024-01-16T13:15:47;2.80;;;2.20;;
45011;SDS011;63444;48.148;11.542;2024-01-16T13:18:17;3.07;;;2.33;;
45011;SDS011;63444;48.148;11.542;2024-01-16T13:20:47;3.23;;;2.40;;
45011;SDS011;63444;48.148;11.542;2024-01-16T13:23:16;2.83;;;2.40;;
45011;SDS011;63444;48.148;11.542;2024-01-16T13:25:42;2.63;;;2.30;;
45011;SDS011;63444;48.148;11.542;2024-01-16T13:28:10;2.83;;;2.20;;
45011;SDS011;63444;48.148;11.542;2024-01-16T13:30:36;2.10;;;1.90;;
45011;SDS011;63444;48.148;11.542;2024-01-16T13:33:03;2.67;;;2.10;;
45011;SDS011;63444;48.148;11.542;2024-01-16T13:35:29;3.67;;;2.13;;
45011;SDS011;63444;48.148;11.542;2024-01-16T13:37:55;2.87;;;2.03;;
45011;SDS011;63444;48.148;11.542;2024-01-16T13:40:21;3.37;;;2.10;;
45011;SDS011;63444;48.148;11.542;2024-01-16T13:42:47;7.30;;;2.10;;
45011;SDS011;63444;48.148;11.542;2024-01-16T13:45:13;3.00;;;1.93;;
45011;SDS011;63444;48.148;11.542;2024-01-16T13:47:39;2.50;;;2.27;;
45011;SDS011;63444;48.148;11.542;2024-01-16T13:50:08;2.73;;;2.13;;
45011;SDS011;63444;48.148;11.542;2024-01-16T13:52:34;4.03;;;2.43;;
45011;SDS011;63444;48.148;11.542;2024-01-16T13:55:01;3.00;;;2.00;;
45011;SDS011;63444;48.148;11.542;2024-01-16T13:57:30;2.03;;;1.80;;
45011;SDS011;63444;48.148;11.542;2024-01-16T13:59:56;2.27;;;1.87;;
45011;SDS011;63444;48.148;11.542;2024-01-16T14:02:23;4.43;;;2.30;;
45011;SDS011;63444;48.148;11.542;2024-01-16T14:04:48;2.43;;;2.00;;
45011;SDS011;63444;48.148;11.542;2024-01-16T14:07:14;3.47;;;2.17;;
45011;SDS011;63444;48.148;11.542;2024-01-16T14:09:41;3.27;;;2.17;;
45011;SDS011;63444;48.148;11.542;2024-01-16T14:12:07;4.97;;;2.07;;
45011;SDS011;63444;48.148;11.542;2024-01-16T14:14:34;2.70;;;2.10;;
45011;SDS011;63444;48.148;11.542;2024-01-16T14:17:00;5.10;;;2.23;;
45011;SDS011;63444;48.148;11.542;2024-01-16T14:19:27;2.70;;;2.03;;
45011;SDS011;63444;48.148;11.542;2024-01-16T14:21:54;2.93;;;2.23;;
45011;SDS011;63444;48.148;11.542;2024-01-16T14:24:21;4.03;;;2.50;;
45011;SDS011;63444;48.148;11.542;2024-01-16T14:26:46;2.80;;;2.30;;
45011;SDS011;63444;48.148;11.542;2024-01-16T14:29:12;3.67;;;2.67;;
45011;SDS011;63444;48.148;11.542;2024-01-16T14:31:38;4.87;;;2.93;;
45011;SDS011;63444;48.148;11.542;2024-01-16T14:34:10;3.13;;;2.60;;
45011;SDS011;63444;48.148;11.542;2024-01-16T14:36:39;7.63;;;2.73;;
45011;SDS011;63444;48.148;11.542;2024-01-16T14:39:04;5.13;;;3.20;;
45011;SDS011;63444;48.148;11.542;2024-01-16T14:41:30;6.93;;;3.97;;
45011;SDS011;63444;48.148;11.542;2024-01-16T14:43:56;5.37;;;3.83;;
45011;SDS011;63444;48.148;11.542;2024-01-16T14:46:22;7.17;;;4.13;;
45011;SDS011;63444;48.148;11.542;2024-01-16T14:48:48;5.07;;;4.00;;